createdAt,value
2023-03-03T00:02:24.286Z,99495.53
2023-03-03T00:04:53.701Z,99497.19
2023-03-03T00:07:24.383Z,99498.50
2023-03-03T00:09:55.122Z,99491.91
2023-03-03T00:12:26.330Z,99490.44
2023-03-03T00:14:53.671Z,99488.28
2023-03-03T00:17:31.991Z,99487.06
2023-03-03T00:20:03.678Z,99490.38
2023-03-03T00:22:33.850Z,99493.69
2023-03-03T00:25:22.037Z,99496.13
2023-03-03T00:27:53.805Z,99497.13
2023-03-03T00:30:29.170Z,99504.56
2023-03-03T00:32:56.238Z,99508.69
2023-03-03T00:35:39.706Z,99496.47
2023-03-03T00:38:25.122Z,99495.00
2023-03-03T00:40:56.493Z,99500.44
2023-03-03T00:43:25.372Z,99496.09
2023-03-03T00:45:54.060Z,99487.84
2023-03-03T00:48:29.856Z,99492.00
2023-03-03T00:50:59.828Z,99488.34
2023-03-03T00:53:31.156Z,99487.81
2023-03-03T00:56:01.128Z,99497.19
2023-03-03T00:58:27.932Z,99486.50
2023-03-03T01:01:05.103Z,99482.41
2023-03-03T01:03:44.907Z,99491.78
2023-03-03T01:06:13.196Z,99484.34
2023-03-03T01:08:47.585Z,99467.56
2023-03-03T01:11:22.664Z,99467.72
2023-03-03T01:13:50.698Z,99466.06
2023-03-03T01:16:18.012Z,99462.06
2023-03-03T01:18:46.992Z,99456.31
2023-03-03T01:21:17.453Z,99455.34
2023-03-03T01:23:44.198Z,99452.00
2023-03-03T01:26:18.693Z,99451.13
2023-03-03T01:28:53.042Z,99444.88
2023-03-03T01:31:20.393Z,99450.63
2023-03-03T01:33:48.466Z,99442.38
2023-03-03T01:36:15.581Z,99436.78
2023-03-03T01:38:43.317Z,99444.47
2023-03-03T01:41:11.573Z,99448.09
2023-03-03T01:43:47.095Z,99437.88
2023-03-03T01:46:31.320Z,99446.44
2023-03-03T01:49:12.552Z,99439.38
2023-03-03T01:51:48.939Z,99438.84
2023-03-03T01:54:28.114Z,99437.34
2023-03-03T01:56:57.362Z,99440.50
2023-03-03T01:59:31.798Z,99431.75
2023-03-03T02:01:58.718Z,99434.09
2023-03-03T02:04:29.800Z,99435.56
2023-03-03T02:07:07.467Z,99440.50
2023-03-03T02:09:55.454Z,99446.09
2023-03-03T02:12:29.646Z,99442.94
2023-03-03T02:14:56.313Z,99437.81
2023-03-03T02:17:23.338Z,99446.88
2023-03-03T02:20:23.623Z,99444.38
2023-03-03T02:22:55.665Z,99440.09
2023-03-03T02:25:34.315Z,99440.09
2023-03-03T02:28:01.816Z,99435.75
2023-03-03T02:30:29.797Z,99435.97
2023-03-03T02:32:56.632Z,99437.56
2023-03-03T02:35:27.744Z,99442.00
2023-03-03T02:38:03.102Z,99445.72
2023-03-03T02:40:33.687Z,99449.03
2023-03-03T02:43:03.875Z,99434.78
2023-03-03T02:45:32.066Z,99444.63
2023-03-03T02:48:02.627Z,99442.03
2023-03-03T02:50:39.402Z,99436.28
2023-03-03T02:53:07.993Z,99431.88
2023-03-03T02:55:36.754Z,99426.94
2023-03-03T02:58:12.852Z,99424.16
2023-03-03T03:00:43.907Z,99421.19
2023-03-03T03:03:10.588Z,99425.16
2023-03-03T03:05:44.041Z,99423.19
2023-03-03T03:08:14.081Z,99421.88
2023-03-03T03:10:46.374Z,99419.91
2023-03-03T03:13:13.632Z,99425.16
2023-03-03T03:15:47.235Z,99427.69
2023-03-03T03:18:21.112Z,99427.69
2023-03-03T03:20:51.927Z,99427.03
2023-03-03T03:23:23.890Z,99432.66
2023-03-03T03:25:51.951Z,99430.22
2023-03-03T03:28:26.061Z,99430.06
2023-03-03T03:30:55.073Z,99426.63
2023-03-03T03:33:24.359Z,99428.28
2023-03-03T03:35:54.923Z,99434.69
2023-03-03T03:38:27.286Z,99438.00
2023-03-03T03:41:00.327Z,99432.41
2023-03-03T03:43:30.983Z,99440.00
2023-03-03T03:46:01.035Z,99431.78
2023-03-03T03:48:30.964Z,99432.81
2023-03-03T03:50:58.957Z,99420.59
2023-03-03T03:53:27.139Z,99417.78
2023-03-03T03:55:54.027Z,99424.41
2023-03-03T03:58:24.089Z,99418.97
2023-03-03T04:01:06.233Z,99409.94
2023-03-03T04:03:37.947Z,99408.28
2023-03-03T04:06:12.116Z,99403.16
2023-03-03T04:08:43.395Z,99402.66
2023-03-03T04:11:14.818Z,99404.94
2023-03-03T04:13:57.955Z,99407.44
2023-03-03T04:16:27.810Z,99408.75
2023-03-03T04:18:54.835Z,99409.38
2023-03-03T04:21:22.069Z,99419.41
2023-03-03T04:23:53.818Z,99424.13
2023-03-03T04:26:22.850Z,99428.91
2023-03-03T04:28:49.570Z,99415.38
2023-03-03T04:31:18.013Z,99421.78
2023-03-03T04:33:46.402Z,99421.69
2023-03-03T04:36:17.080Z,99427.44
2023-03-03T04:38:44.143Z,99432.19
2023-03-03T04:41:13.711Z,99433.38
2023-03-03T04:43:41.108Z,99430.53
2023-03-03T04:46:09.389Z,99427.97
2023-03-03T04:48:38.670Z,99422.47
2023-03-03T04:51:12.848Z,99433.28
2023-03-03T04:53:39.698Z,99428.16
2023-03-03T04:56:11.058Z,99434.72
2023-03-03T04:58:37.725Z,99429.44
2023-03-03T05:01:07.271Z,99429.22
2023-03-03T05:03:37.296Z,99434.47
2023-03-03T05:06:09.261Z,99434.81
2023-03-03T05:08:35.948Z,99441.88
2023-03-03T05:11:04.019Z,99439.63
2023-03-03T05:13:31.690Z,99450.53
2023-03-03T05:15:58.373Z,99438.13
2023-03-03T05:18:26.338Z,99435.19
2023-03-03T05:20:56.131Z,99437.84
2023-03-03T05:23:22.992Z,99438.81
2023-03-03T05:25:52.810Z,99437.97
2023-03-03T05:28:22.195Z,99433.03
2023-03-03T05:30:52.270Z,99443.69
2023-03-03T05:33:20.529Z,99454.28
2023-03-03T05:35:47.270Z,99450.31
2023-03-03T05:38:16.064Z,99461.78
2023-03-03T05:40:46.637Z,99462.34
2023-03-03T05:43:16.064Z,99465.25
2023-03-03T05:45:58.016Z,99464.97
2023-03-03T05:48:24.961Z,99468.63
2023-03-03T05:50:52.233Z,99456.53
2023-03-03T05:53:20.163Z,99463.16
2023-03-03T05:55:52.134Z,99465.34
2023-03-03T05:58:18.801Z,99460.13
2023-03-03T06:00:46.830Z,99472.41
2023-03-03T06:03:18.883Z,99475.78
2023-03-03T06:05:47.626Z,99482.13
2023-03-03T06:08:14.220Z,99489.75
2023-03-03T06:10:41.910Z,99495.16
2023-03-03T06:13:10.875Z,99487.06
2023-03-03T06:15:38.129Z,99492.75
2023-03-03T06:18:08.418Z,99495.81
2023-03-03T06:20:35.586Z,99492.09
2023-03-03T06:23:02.429Z,99495.13
2023-03-03T06:25:29.136Z,99500.50
2023-03-03T06:27:58.686Z,99507.81
2023-03-03T06:30:27.067Z,99513.13
2023-03-03T06:32:57.157Z,99505.28
2023-03-03T06:35:23.773Z,99507.13
2023-03-03T06:37:50.938Z,99502.25
2023-03-03T06:40:22.070Z,99511.19
2023-03-03T06:42:49.043Z,99496.50
2023-03-03T06:45:16.346Z,99504.25
2023-03-03T06:47:45.122Z,99510.19
2023-03-03T06:50:12.914Z,99514.63
2023-03-03T06:52:40.724Z,99518.06
2023-03-03T06:55:28.800Z,99526.63
2023-03-03T06:57:58.347Z,99529.03
2023-03-03T07:00:32.598Z,99533.47
2023-03-03T07:03:08.686Z,99529.94
2023-03-03T07:05:37.548Z,99530.16
2023-03-03T07:08:12.544Z,99518.94
2023-03-03T07:10:39.472Z,99528.97
2023-03-03T07:13:20.044Z,99536.47
2023-03-03T07:15:48.752Z,99528.78
2023-03-03T07:18:35.854Z,99523.41
2023-03-03T07:21:26.734Z,99531.13
2023-03-03T07:23:54.112Z,99539.94
2023-03-03T07:26:26.144Z,99534.75
2023-03-03T07:28:59.240Z,99535.78
2023-03-03T07:31:41.042Z,99536.72
2023-03-03T07:34:24.708Z,99542.59
2023-03-03T07:36:55.245Z,99540.63
2023-03-03T07:39:30.165Z,99544.63
2023-03-03T07:42:22.096Z,99544.28
2023-03-03T07:44:59.684Z,99551.97
2023-03-03T07:47:36.234Z,99547.34
2023-03-03T07:50:19.353Z,99542.66
2023-03-03T07:52:57.071Z,99546.16
2023-03-03T07:55:29.890Z,99544.31
2023-03-03T07:58:14.794Z,99546.31
2023-03-03T08:01:18.766Z,99552.00
2023-03-03T08:03:46.967Z,99555.28
2023-03-03T08:06:33.130Z,99556.28
2023-03-03T08:09:12.160Z,99559.59
2023-03-03T08:12:10.409Z,99552.50
2023-03-03T08:14:38.578Z,99564.09
2023-03-03T08:17:35.497Z,99558.66
2023-03-03T08:20:02.446Z,99568.69
2023-03-03T08:22:54.315Z,99561.13
2023-03-03T08:25:22.867Z,99574.47
2023-03-03T08:27:56.647Z,99568.38
2023-03-03T08:30:23.369Z,99575.50
2023-03-03T08:32:53.144Z,99570.59
2023-03-03T08:35:21.950Z,99573.19
2023-03-03T08:37:48.733Z,99569.69
2023-03-03T08:40:16.534Z,99570.44
2023-03-03T08:42:46.654Z,99554.47
2023-03-03T08:45:18.839Z,99554.16
2023-03-03T08:47:45.665Z,99560.66
2023-03-03T08:50:13.417Z,99550.53
2023-03-03T08:52:41.641Z,99553.16
2023-03-03T08:55:08.914Z,99552.81
2023-03-03T08:57:35.867Z,99553.00
2023-03-03T09:00:10.682Z,99542.75
2023-03-03T09:02:42.388Z,99548.81
2023-03-03T09:05:12.742Z,99541.28
2023-03-03T09:07:42.871Z,99545.97
2023-03-03T09:10:13.345Z,99544.81
2023-03-03T09:12:43.643Z,99555.47
2023-03-03T09:15:33.784Z,99552.00
2023-03-03T09:18:14.068Z,99551.19
2023-03-03T09:20:42.954Z,99546.66
2023-03-03T09:23:39.829Z,99552.44
2023-03-03T09:26:20.771Z,99555.09
2023-03-03T09:28:49.788Z,99559.66
2023-03-03T09:31:28.351Z,99556.38
2023-03-03T09:33:57.989Z,99557.75
2023-03-03T09:36:29.880Z,99558.22
2023-03-03T09:39:00.154Z,99554.69
2023-03-03T09:42:03.395Z,99560.59
2023-03-03T09:45:08.748Z,99561.44
2023-03-03T09:47:54.011Z,99568.38
2023-03-03T09:50:35.577Z,99565.41
2023-03-03T09:53:33.792Z,99560.50
2023-03-03T09:56:42.491Z,99566.84
2023-03-03T09:59:22.413Z,99568.53
2023-03-03T10:02:09.046Z,99561.84
2023-03-03T10:04:57.567Z,99569.94
2023-03-03T10:07:46.850Z,99563.59
2023-03-03T10:10:18.668Z,99566.09
2023-03-03T10:13:14.731Z,99562.19
2023-03-03T10:16:01.588Z,99572.38
2023-03-03T10:19:15.984Z,99554.44
2023-03-03T10:21:42.771Z,99560.59
2023-03-03T10:24:32.062Z,99555.94
2023-03-03T10:27:13.067Z,99555.69
2023-03-03T10:29:55.784Z,99553.53
2023-03-03T10:32:37.507Z,99564.31
2023-03-03T10:35:33.067Z,99567.19
2023-03-03T10:38:33.157Z,99569.38
2023-03-03T10:41:26.925Z,99562.41
2023-03-03T10:44:16.324Z,99557.19
2023-03-03T10:47:12.073Z,99562.25
2023-03-03T10:49:57.898Z,99553.97
2023-03-03T10:52:31.538Z,99544.63
2023-03-03T10:55:13.498Z,99533.59
2023-03-03T10:58:01.449Z,99531.13
2023-03-03T11:00:39.727Z,99524.00
2023-03-03T11:03:41.278Z,99522.81
2023-03-03T11:06:35.990Z,99512.56
2023-03-03T11:09:09.085Z,99507.72
2023-03-03T11:11:45.077Z,99499.56
2023-03-03T11:14:24.806Z,99492.56
2023-03-03T11:17:04.066Z,99493.06
2023-03-03T11:19:58.640Z,99490.72
2023-03-03T11:22:29.597Z,99495.72
2023-03-03T11:25:15.495Z,99491.16
2023-03-03T11:28:05.753Z,99487.03
2023-03-03T11:31:07.859Z,99488.47
2023-03-03T11:33:45.816Z,99491.78
2023-03-03T11:36:25.335Z,99494.47
2023-03-03T11:39:14.723Z,99483.28
2023-03-03T11:42:01.144Z,99482.47
2023-03-03T11:45:03.631Z,99474.78
2023-03-03T11:47:55.853Z,99470.34
2023-03-03T11:50:34.968Z,99462.19
2023-03-03T11:53:22.665Z,99463.81
2023-03-03T11:55:55.091Z,99466.75
2023-03-03T11:58:46.898Z,99462.03
2023-03-03T12:01:28.732Z,99449.44
2023-03-03T12:04:16.352Z,99449.09
2023-03-03T12:07:17.950Z,99445.63
2023-03-03T12:10:24.896Z,99437.56
2023-03-03T12:12:59.238Z,99429.94
2023-03-03T12:15:45.151Z,99438.94
2023-03-03T12:18:32.187Z,99434.22
2023-03-03T12:21:29.942Z,99434.38
2023-03-03T12:24:20.324Z,99433.44
2023-03-03T12:27:13.228Z,99441.72
2023-03-03T12:29:41.873Z,99429.34
2023-03-03T12:32:27.193Z,99439.50
2023-03-03T12:35:37.547Z,99441.72
2023-03-03T12:38:16.046Z,99435.53
2023-03-03T12:41:01.636Z,99426.97
2023-03-03T12:44:00.820Z,99423.91
2023-03-03T12:46:54.800Z,99422.06
2023-03-03T12:49:25.020Z,99423.31
2023-03-03T12:52:11.508Z,99418.44
2023-03-03T12:54:53.689Z,99414.97
2023-03-03T12:57:31.267Z,99412.97
2023-03-03T13:00:19.224Z,99410.06
2023-03-03T13:03:01.541Z,99404.09
2023-03-03T13:05:55.273Z,99398.91
2023-03-03T13:08:31.744Z,99396.13
2023-03-03T13:11:11.481Z,99399.44
2023-03-03T13:13:50.690Z,99398.97
2023-03-03T13:16:38.921Z,99394.63
2023-03-03T13:19:18.806Z,99386.53
2023-03-03T13:21:57.068Z,99391.59
2023-03-03T13:24:29.890Z,99386.13
2023-03-03T13:27:07.635Z,99390.19
2023-03-03T13:29:41.659Z,99388.41
2023-03-03T13:32:27.698Z,99386.97
2023-03-03T13:34:58.223Z,99383.16
2023-03-03T13:37:29.960Z,99381.44
2023-03-03T13:39:58.474Z,99382.78
2023-03-03T13:42:51.477Z,99382.53
2023-03-03T13:45:25.518Z,99375.91
2023-03-03T13:48:23.234Z,99369.72
2023-03-03T13:51:28.839Z,99371.69
2023-03-03T13:54:12.226Z,99368.56
2023-03-03T13:56:47.218Z,99371.03
2023-03-03T13:59:39.693Z,99372.19
2023-03-03T14:02:31.899Z,99370.41
2023-03-03T14:05:02.387Z,99374.31
2023-03-03T14:07:34.953Z,99360.19
2023-03-03T14:10:21.956Z,99360.59
2023-03-03T14:13:03.454Z,99359.63
2023-03-03T14:15:36.953Z,99362.56
2023-03-03T14:18:22.117Z,99359.94
2023-03-03T14:20:51.939Z,99365.34
2023-03-03T14:23:27.786Z,99363.38
2023-03-03T14:26:15.633Z,99367.13
2023-03-03T14:28:45.315Z,99370.81
2023-03-03T14:31:24.354Z,99357.16
2023-03-03T14:34:05.219Z,99367.28
2023-03-03T14:36:38.865Z,99363.41
2023-03-03T14:39:24.309Z,99356.94
2023-03-03T14:42:01.595Z,99348.25
2023-03-03T14:44:41.067Z,99354.69
2023-03-03T14:47:10.801Z,99360.78
2023-03-03T14:49:39.104Z,99366.34
2023-03-03T14:52:33.960Z,99358.00
2023-03-03T14:55:06.477Z,99363.06
2023-03-03T14:57:37.536Z,99354.84
2023-03-03T15:00:29.709Z,99360.53
2023-03-03T15:03:27.444Z,99361.34
2023-03-03T15:06:12.082Z,99362.06
2023-03-03T15:08:40.502Z,99356.44
2023-03-03T15:11:30.529Z,99354.94
2023-03-03T15:14:15.626Z,99355.78
2023-03-03T15:16:52.735Z,99363.13
2023-03-03T15:20:00.948Z,99361.69
2023-03-03T15:22:48.594Z,99355.69
2023-03-03T15:25:43.433Z,99354.88
2023-03-03T15:28:22.651Z,99356.63
2023-03-03T15:30:58.046Z,99353.59
2023-03-03T15:33:42.753Z,99355.22
2023-03-03T15:36:38.726Z,99353.81
2023-03-03T15:39:30.925Z,99352.09
2023-03-03T15:42:03.106Z,99349.22
2023-03-03T15:45:19.175Z,99352.19
2023-03-03T15:48:13.884Z,99351.25
2023-03-03T15:50:54.865Z,99358.84
2023-03-03T15:53:59.785Z,99364.81
2023-03-03T15:56:48.015Z,99356.03
2023-03-03T15:59:48.898Z,99350.16
2023-03-03T16:02:17.386Z,99357.84
2023-03-03T16:05:05.665Z,99354.44
2023-03-03T16:08:01.924Z,99361.50
2023-03-03T16:10:43.926Z,99364.75
2023-03-03T16:13:30.305Z,99362.97
2023-03-03T16:16:17.735Z,99360.53
2023-03-03T16:18:50.182Z,99367.66
2023-03-03T16:21:23.149Z,99366.53
2023-03-03T16:23:51.672Z,99371.38
2023-03-03T16:26:41.794Z,99371.66
2023-03-03T16:29:30.325Z,99379.28
2023-03-03T16:32:19.968Z,99384.88
2023-03-03T16:35:31.855Z,99383.84
2023-03-03T16:38:01.546Z,99381.66
2023-03-03T16:40:52.546Z,99392.03
2023-03-03T16:43:40.977Z,99393.41
2023-03-03T16:46:30.033Z,99384.53
2023-03-03T16:49:17.294Z,99388.09
2023-03-03T16:52:39.785Z,99395.00
2023-03-03T16:55:28.238Z,99397.56
2023-03-03T16:58:31.900Z,99411.66
2023-03-03T17:01:32.607Z,99422.03
2023-03-03T17:04:07.726Z,99417.56
2023-03-03T17:06:48.001Z,99413.63
2023-03-03T17:09:51.855Z,99422.09
2023-03-03T17:12:37.155Z,99416.59
2023-03-03T17:15:24.977Z,99422.94
2023-03-03T17:18:26.772Z,99425.44
2023-03-03T17:21:01.379Z,99439.78
2023-03-03T17:23:44.110Z,99433.00
2023-03-03T17:26:58.617Z,99446.53
2023-03-03T17:29:51.620Z,99450.00
2023-03-03T17:32:36.483Z,99444.44
2023-03-03T17:35:34.800Z,99450.94
2023-03-03T17:38:19.888Z,99452.34
2023-03-03T17:41:16.053Z,99455.78
2023-03-03T17:44:05.873Z,99462.69
2023-03-03T17:46:45.995Z,99465.50
2023-03-03T17:49:41.411Z,99466.50
2023-03-03T17:52:24.849Z,99467.69
2023-03-03T17:55:12.585Z,99478.03
2023-03-03T17:57:48.132Z,99482.00
2023-03-03T18:00:26.993Z,99484.44
2023-03-03T18:02:53.671Z,99482.75
2023-03-03T18:05:44.613Z,99491.63
2023-03-03T18:08:30.038Z,99491.34
2023-03-03T18:11:15.189Z,99496.56
2023-03-03T18:13:41.796Z,99497.63
2023-03-03T18:16:19.317Z,99492.63
2023-03-03T18:19:12.685Z,99491.53
2023-03-03T18:21:48.376Z,99498.38
2023-03-03T18:24:30.137Z,99501.97
2023-03-03T18:27:39.521Z,99496.31
2023-03-03T18:30:18.618Z,99499.44
2023-03-03T18:32:56.480Z,99507.34
2023-03-03T18:35:45.847Z,99499.94
2023-03-03T18:38:15.522Z,99510.44
2023-03-03T18:41:04.984Z,99510.13
2023-03-03T18:43:44.394Z,99510.09
2023-03-03T18:46:22.008Z,99510.19
2023-03-03T18:49:18.171Z,99509.72
2023-03-03T18:51:45.828Z,99509.38
2023-03-03T18:54:17.252Z,99514.84
2023-03-03T18:57:04.184Z,99511.91
2023-03-03T18:59:48.341Z,99513.09
2023-03-03T19:02:42.477Z,99511.84
2023-03-03T19:05:23.445Z,99512.09
2023-03-03T19:08:22.421Z,99512.09
2023-03-03T19:11:05.546Z,99520.69
2023-03-03T19:13:33.493Z,99517.59
2023-03-03T19:16:30.790Z,99522.97
2023-03-03T19:19:00.756Z,99514.66
2023-03-03T19:21:32.624Z,99521.94
2023-03-03T19:24:22.367Z,99520.66
2023-03-03T19:27:05.916Z,99516.84
2023-03-03T19:29:45.691Z,99521.47
2023-03-03T19:32:28.478Z,99520.84
2023-03-03T19:35:12.214Z,99520.28
2023-03-03T19:37:53.207Z,99525.66
2023-03-03T19:40:29.164Z,99528.66
2023-03-03T19:43:12.793Z,99533.41
2023-03-03T19:45:54.988Z,99533.66
2023-03-03T19:48:27.459Z,99535.47
2023-03-03T19:51:09.941Z,99540.22
2023-03-03T19:54:01.507Z,99536.25
2023-03-03T19:56:43.045Z,99534.50
2023-03-03T19:59:40.070Z,99537.50
2023-03-03T20:02:44.393Z,99543.31
2023-03-03T20:05:36.316Z,99552.44
2023-03-03T20:08:08.370Z,99553.09
2023-03-03T20:10:53.304Z,99552.25
2023-03-03T20:13:56.341Z,99559.53
2023-03-03T20:16:37.417Z,99563.84
2023-03-03T20:19:34.697Z,99561.69
2023-03-03T20:22:29.299Z,99570.94
2023-03-03T20:25:01.972Z,99574.53
2023-03-03T20:27:54.296Z,99568.81
2023-03-03T20:30:50.132Z,99577.06
2023-03-03T20:33:54.205Z,99579.88
2023-03-03T20:36:43.493Z,99582.81
2023-03-03T20:39:54.877Z,99582.53
2023-03-03T20:42:33.473Z,99587.00
2023-03-03T20:45:09.887Z,99589.53
2023-03-03T20:47:57.696Z,99594.38
2023-03-03T20:50:35.292Z,99597.22
2023-03-03T20:53:17.747Z,99591.84
2023-03-03T20:55:57.825Z,99594.13
2023-03-03T20:58:30.372Z,99597.78
2023-03-03T21:01:06.022Z,99595.03
2023-03-03T21:03:42.410Z,99595.34
2023-03-03T21:06:15.617Z,99599.28
2023-03-03T21:08:54.754Z,99600.41
2023-03-03T21:11:44.071Z,99605.44
2023-03-03T21:14:23.474Z,99600.63
2023-03-03T21:16:51.786Z,99602.97
2023-03-03T21:19:32.920Z,99602.84
2023-03-03T21:22:02.326Z,99609.28
2023-03-03T21:24:55.480Z,99610.03
2023-03-03T21:27:35.097Z,99615.47
2023-03-03T21:30:27.933Z,99615.25
2023-03-03T21:32:54.609Z,99613.81
2023-03-03T21:35:24.651Z,99616.53
2023-03-03T21:38:02.521Z,99610.47
2023-03-03T21:40:36.259Z,99615.59
2023-03-03T21:43:07.164Z,99602.00
2023-03-03T21:45:35.744Z,99607.97
2023-03-03T21:48:04.179Z,99606.31
2023-03-03T21:50:32.998Z,99609.44
2023-03-03T21:52:59.648Z,99610.47
2023-03-03T21:55:29.317Z,99616.06
2023-03-03T21:58:00.823Z,99617.97
2023-03-03T22:00:27.567Z,99621.28
2023-03-03T22:02:59.188Z,99628.94
2023-03-03T22:05:26.164Z,99627.53
2023-03-03T22:07:55.828Z,99627.81
2023-03-03T22:10:22.478Z,99627.59
2023-03-03T22:12:51.561Z,99625.41
2023-03-03T22:15:18.524Z,99618.09
2023-03-03T22:17:46.171Z,99631.00
2023-03-03T22:20:16.138Z,99627.34
2023-03-03T22:22:43.348Z,99630.47
2023-03-03T22:25:12.195Z,99635.19
2023-03-03T22:27:41.306Z,99631.13
2023-03-03T22:30:11.249Z,99630.78
2023-03-03T22:32:46.549Z,99624.63
2023-03-03T22:35:15.243Z,99626.75
2023-03-03T22:37:47.269Z,99628.72
2023-03-03T22:40:19.447Z,99634.47
2023-03-03T22:42:59.624Z,99632.19
2023-03-03T22:45:27.220Z,99636.59
2023-03-03T22:47:59.234Z,99630.34
2023-03-03T22:50:33.066Z,99632.13
2023-03-03T22:53:00.745Z,99628.56
2023-03-03T22:55:32.137Z,99621.16
2023-03-03T22:58:01.519Z,99615.84
2023-03-03T23:00:33.205Z,99623.88
2023-03-03T23:03:02.528Z,99619.56
2023-03-03T23:05:30.290Z,99613.44
2023-03-03T23:07:57.273Z,99616.81
2023-03-03T23:10:23.910Z,99613.44
2023-03-03T23:12:52.568Z,99613.69
2023-03-03T23:15:19.439Z,99613.38
2023-03-03T23:17:52.982Z,99616.75
2023-03-03T23:20:26.189Z,99617.91
2023-03-03T23:22:55.324Z,99614.28
2023-03-03T23:25:29.995Z,99611.78
2023-03-03T23:28:00.476Z,99614.09
2023-03-03T23:30:27.204Z,99612.91
2023-03-03T23:32:58.123Z,99620.81
2023-03-03T23:35:30.594Z,99613.28
2023-03-03T23:37:57.307Z,99621.38
2023-03-03T23:40:31.902Z,99611.91
2023-03-03T23:42:58.984Z,99619.19
2023-03-03T23:45:26.147Z,99617.06
2023-03-03T23:47:52.819Z,99609.09
2023-03-03T23:50:20.674Z,99620.06
2023-03-03T23:52:47.380Z,99605.06
2023-03-03T23:55:16.766Z,99608.56
2023-03-03T23:57:43.742Z,99607.56
